Overview Statistics Trail Chart Weather Telemetry Raw packets
 

This is the latest recevied weather packets stored in our database for station/object HP3ICC-22. If no packets are shown the sender has not sent any weather packets the latest 10 day(s).

<< 29 30 31 32 33 34 35 >>
Time Temp. Humidity Pressure Rain* Wind** Luminosity Snow
1777277852 8.33° C 83% 1012 hPa 0 mm - - -
1777276711 8.33° C 77% 1013 hPa 0 mm - - -
1777276651 8.33° C 77% 1013 hPa 0 mm - - -
1777275511 9.44° C 74% 1013 hPa 0 mm - - -
1777275450 9.44° C 74% 1013 hPa 0 mm - - -
1777274310 8.89° C 88% 1013 hPa 0 mm - - -
1777274249 8.89° C 88% 1013 hPa 0 mm - - -
1777273109 9.44° C 74% 1014 hPa 0 mm - - -
1777273049 9.44° C 74% 1014 hPa 0 mm - - -
1777271909 8.89° C 85% 1014 hPa 0 mm - - -
1777271849 8.89° C 85% 1014 hPa 0 mm - - -
1777270708 9.44° C 74% 1013 hPa 0 mm - - -
1777270648 9.44° C 74% 1013 hPa 0 mm - - -
1777269508 8.89° C 82% 1014 hPa 0 mm - - -
1777269447 8.89° C 82% 1014 hPa 0 mm - - -
1777268307 8.89° C 76% 1014 hPa 0 mm - - -
1777268247 8.89° C 76% 1014 hPa 0 mm - - -
1777267106 10° C 74% 1014 hPa 0 mm - - -
1777267046 10° C 74% 1014 hPa 0 mm - - -
1777265906 8.89° C 85% 1015 hPa 0 mm - - -
1777265846 8.89° C 85% 1015 hPa 0 mm - - -
1777264705 9.44° C 85% 1015 hPa 0 mm - - -
1777264645 9.44° C 85% 1015 hPa 0 mm - - -
1777263505 10° C 74% 1014 hPa 0 mm - - -
1777263445 10° C 74% 1014 hPa 0 mm - - -

* Rain latest hour (hover to see other rain measurements)
** Current wind speed in m/s (hover to see current wind gust speed)